Time;durP1;ratioP1;P1;durP2;ratioP2;P2;SDS_P1;SDS_P2;PMS_P1;PMS_P2;Temp;Humidity;BMP_temperature;BMP_pressure;BME280_temperature;BME280_humidity;BME280_pressure;Samples;Min_cycle;Max_cycle;Signal;HPM_P1;HPM_P2
2023/08/26 00:02:26;;;;;;;9.23;5.22;;;;;;;16.42;100.00;100843.50;5015702;28;20038;-84
2023/08/26 00:04:54;;;;;;;11.68;6.20;;;;;;;16.30;100.00;100850.94;5016438;28;20072;-85
2023/08/26 00:07:20;;;;;;;11.23;5.97;;;;;;;16.31;100.00;100870.97;5016359;28;20040;-85
2023/08/26 00:09:45;;;;;;;8.80;5.00;;;;;;;16.26;100.00;100872.06;5015382;28;20444;-85
2023/08/26 00:12:10;;;;;;;9.83;5.40;;;;;;;16.15;100.00;100875.09;5034222;28;20035;-86
2023/08/26 00:14:36;;;;;;;9.23;4.80;;;;;;;16.12;100.00;100878.69;5036512;28;20474;-85
2023/08/26 00:17:01;;;;;;;8.47;4.93;;;;;;;16.12;100.00;100872.59;5035238;28;20474;-85
2023/08/26 00:19:26;;;;;;;8.43;4.57;;;;;;;16.02;100.00;100866.84;5035951;28;20091;-85
2023/08/26 00:21:54;;;;;;;8.97;4.93;;;;;;;15.94;100.00;100864.50;5035891;28;20097;-85
2023/08/26 00:24:19;;;;;;;6.97;4.20;;;;;;;15.93;100.00;100861.97;5034768;28;20036;-85
2023/08/26 00:26:45;;;;;;;8.37;4.23;;;;;;;15.93;100.00;100869.81;5036105;28;20029;-84
2023/08/26 00:29:11;;;;;;;7.10;4.30;;;;;;;15.90;100.00;100861.16;5035554;28;20375;-84
2023/08/26 00:31:37;;;;;;;7.68;4.38;;;;;;;15.87;100.00;100868.28;5035138;28;20100;-84
2023/08/26 00:34:03;;;;;;;7.03;4.05;;;;;;;15.87;100.00;100881.38;5035786;28;20060;-85
2023/08/26 00:36:30;;;;;;;7.00;3.75;;;;;;;15.82;100.00;100871.03;5035420;28;20036;-85
2023/08/26 00:38:56;;;;;;;6.35;3.90;;;;;;;15.79;100.00;100873.75;5024068;28;20042;-84
2023/08/26 00:41:21;;;;;;;5.03;3.37;;;;;;;15.73;100.00;100874.00;5015372;28;20033;-85
2023/08/26 00:43:46;;;;;;;5.33;3.40;;;;;;;15.68;100.00;100868.06;5014826;28;20521;-85
2023/08/26 00:46:13;;;;;;;5.00;3.13;;;;;;;15.63;100.00;100875.25;5014919;28;20034;-85
2023/08/26 00:48:54;;;;;;;4.28;2.80;;;;;;;15.62;100.00;100881.38;5015526;28;20041;-84
2023/08/26 00:51:36;;;;;;;3.45;2.60;;;;;;;15.50;100.00;100873.06;5014626;28;20026;-84
2023/08/26 00:54:01;;;;;;;8.20;4.00;;;;;;;15.39;100.00;100864.75;5015725;28;20486;-85
2023/08/26 00:56:27;;;;;;;5.47;3.40;;;;;;;15.42;100.00;100875.09;5015469;28;20054;-85
2023/08/26 00:58:52;;;;;;;7.10;3.73;;;;;;;15.36;100.00;100876.16;5014456;28;20026;-85
2023/08/26 01:01:19;;;;;;;4.17;2.90;;;;;;;15.32;100.00;100876.31;5014664;28;20041;-84
2023/08/26 01:03:48;;;;;;;;;;;;;;;15.27;100.00;100879.94;5016015;28;20022;-85
2023/08/26 01:06:13;;;;;;;4.65;2.83;;;;;;;15.20;100.00;100880.22;5014370;28;19944;-85
2023/08/26 01:08:39;;;;;;;5.13;3.10;;;;;;;15.06;100.00;100876.28;5014845;28;20033;-86
2023/08/26 01:11:13;;;;;;;5.13;3.10;;;;;;;15.00;100.00;100873.91;5015399;28;20368;-84
2023/08/26 01:14:00;;;;;;;5.15;3.20;;;;;;;14.99;100.00;100885.25;5014536;28;20055;-86
2023/08/26 01:16:26;;;;;;;5.15;3.20;;;;;;;14.83;100.00;100879.69;5015039;28;20026;-85
2023/08/26 01:18:52;;;;;;;4.00;2.80;;;;;;;14.77;100.00;100879.84;5014962;28;20573;-84
2023/08/26 01:21:34;;;;;;;4.70;2.90;;;;;;;14.69;100.00;100885.34;5014543;28;20112;-85
2023/08/26 01:24:02;;;;;;;4.88;2.70;;;;;;;14.58;100.00;100869.97;5014716;28;20026;-85
2023/08/26 01:26:28;;;;;;;2.53;2.10;;;;;;;14.58;100.00;100879.59;5014077;28;20026;-84
2023/08/26 01:28:53;;;;;;;3.70;2.73;;;;;;;14.46;100.00;100886.03;5014996;28;20056;-84
2023/08/26 01:31:31;;;;;;;;;;;;;;;;;;;;;
2023/08/26 01:34:12;;;;;;;3.05;2.33;;;;;;;14.27;100.00;100878.75;5009704;28;20068;-85
2023/08/26 01:36:42;;;;;;;2.30;2.10;;;;;;;14.28;100.00;100887.44;5015061;28;20466;-85
2023/08/26 01:39:12;;;;;;;2.88;2.30;;;;;;;14.23;100.00;100892.81;5015058;28;20061;-85
2023/08/26 01:41:38;;;;;;;3.30;2.20;;;;;;;14.20;100.00;100896.38;5014408;28;20062;-85
2023/08/26 01:44:05;;;;;;;2.90;2.20;;;;;;;14.07;100.00;100875.91;5014675;28;20113;-85
2023/08/26 01:46:36;;;;;;;;;;;;;;;14.10;100.00;100894.06;5015067;28;20188;-85
2023/08/26 01:49:02;;;;;;;3.70;2.40;;;;;;;14.02;100.00;100887.31;5013917;28;20285;-84
2023/08/26 01:51:28;;;;;;;2.90;2.50;;;;;;;13.99;100.00;100897.84;5014503;28;20029;-85
2023/08/26 01:53:53;;;;;;;2.47;2.10;;;;;;;13.93;100.00;100892.81;5014556;28;20014;-85
2023/08/26 01:56:18;;;;;;;2.43;2.00;;;;;;;13.95;100.00;100903.19;5014297;28;20026;-86
2023/08/26 01:58:47;;;;;;;3.20;2.00;;;;;;;13.90;100.00;100895.50;5014365;28;20026;-85
2023/08/26 02:01:12;;;;;;;2.85;2.10;;;;;;;13.85;100.00;100898.22;5013520;28;20040;-84
2023/08/26 02:03:37;;;;;;;2.30;1.97;;;;;;;13.82;100.00;100900.06;5027725;28;20033;-85
2023/08/26 02:06:03;;;;;;;2.70;2.20;;;;;;;13.78;100.00;100901.06;5025150;28;20393;-84
2023/08/26 02:08:28;;;;;;;2.60;1.90;;;;;;;13.72;100.00;100899.47;5033387;28;20032;-85
2023/08/26 02:10:57;;;;;;;2.10;1.90;;;;;;;13.69;100.00;100894.31;5034554;28;20462;-85
2023/08/26 02:13:27;;;;;;;3.55;2.28;;;;;;;13.61;100.00;100886.75;5034381;28;20026;-85
2023/08/26 02:16:03;;;;;;;2.22;1.90;;;;;;;13.66;100.00;100897.03;5033143;28;20064;-85
2023/08/26 02:18:28;;;;;;;1.98;1.80;;;;;;;13.63;100.00;100887.53;5034271;28;20446;-85
2023/08/26 02:21:02;;;;;;;2.90;1.97;;;;;;;13.60;100.00;100887.63;5033804;28;20082;-85
2023/08/26 02:23:28;;;;;;;1.60;1.50;;;;;;;13.56;100.00;100888.59;5033523;28;20021;-85
2023/08/26 02:25:53;;;;;;;1.90;1.80;;;;;;;13.58;100.00;100887.66;5033164;28;20026;-85
2023/08/26 02:28:18;;;;;;;1.63;1.53;;;;;;;13.57;100.00;100892.91;5032711;28;20053;-85
2023/08/26 02:30:43;;;;;;;1.70;1.60;;;;;;;13.51;100.00;100888.72;5032792;28;20472;-85
2023/08/26 02:33:09;;;;;;;1.40;1.30;;;;;;;13.56;100.00;100891.22;5012833;23;20054;-85
2023/08/26 02:35:35;;;;;;;2.70;1.90;;;;;;;13.50;100.00;100894.84;4995024;28;20114;-85
2023/08/26 02:38:01;;;;;;;2.50;2.08;;;;;;;13.44;100.00;100890.63;4993476;28;20027;-85
2023/08/26 02:40:26;;;;;;;2.20;1.63;;;;;;;13.41;100.00;100892.47;4993958;28;20033;-85
2023/08/26 02:42:54;;;;;;;2.40;1.80;;;;;;;13.36;100.00;100889.09;4993451;28;20375;-85
2023/08/26 02:45:20;;;;;;;1.83;1.65;;;;;;;13.34;100.00;100883.94;4993256;28;20045;-85
2023/08/26 02:47:46;;;;;;;1.70;1.50;;;;;;;13.33;100.00;100884.81;4994240;28;20030;-85
2023/08/26 02:50:11;;;;;;;1.83;1.60;;;;;;;13.30;100.00;100887.50;4993594;28;20035;-85
2023/08/26 02:52:52;;;;;;;2.25;1.40;;;;;;;13.28;100.00;100876.28;4993975;28;20092;-85
2023/08/26 02:55:18;;;;;;;1.35;1.25;;;;;;;13.18;100.00;100861.75;4993680;28;20027;-85
2023/08/26 02:57:43;;;;;;;1.17;1.10;;;;;;;13.24;100.00;100877.25;4992401;28;20030;-84
2023/08/26 03:00:13;;;;;;;2.73;1.83;;;;;;;13.18;100.00;100878.25;4993639;28;20084;-85
2023/08/26 03:02:39;;;;;;;2.00;1.73;;;;;;;13.12;100.00;100875.78;4994092;28;20038;-85
2023/08/26 03:05:04;;;;;;;1.50;1.40;;;;;;;13.08;100.00;100877.63;4992980;28;20027;-85
2023/08/26 03:07:29;;;;;;;1.63;1.50;;;;;;;13.09;100.00;100884.56;4994303;28;20023;-85
2023/08/26 03:09:55;;;;;;;1.50;1.40;;;;;;;13.07;100.00;100883.72;4994053;28;20025;-85
2023/08/26 03:12:20;;;;;;;2.60;1.70;;;;;;;13.01;100.00;100872.59;4993273;28;20018;-85
2023/08/26 03:14:45;;;;;;;2.73;1.90;;;;;;;12.93;100.00;100880.63;4994158;28;20022;-85
2023/08/26 03:17:11;;;;;;;1.90;1.80;;;;;;;12.91;100.00;100877.19;4994038;28;20048;-84
2023/08/26 03:19:37;;;;;;;2.17;1.70;;;;;;;12.94;100.00;100884.94;4992995;28;20390;-85
2023/08/26 03:22:02;;;;;;;1.60;1.50;;;;;;;12.85;100.00;100875.59;4993595;28;20018;-85
2023/08/26 03:24:27;;;;;;;1.50;1.40;;;;;;;12.87;100.00;100892.06;4993222;28;20369;-84
2023/08/26 03:26:53;;;;;;;1.73;1.40;;;;;;;12.88;100.00;100885.09;4992819;28;20109;-84
2023/08/26 03:29:18;;;;;;;1.43;1.33;;;;;;;12.85;100.00;100887.75;4993503;28;20503;-84
2023/08/26 03:31:44;;;;;;;1.93;1.70;;;;;;;12.83;100.00;100891.25;4994380;28;20032;-85
2023/08/26 03:34:09;;;;;;;1.60;1.50;;;;;;;12.80;100.00;100893.94;5012319;23;20057;-85
2023/08/26 03:36:35;;;;;;;1.50;1.40;;;;;;;12.76;100.00;100887.09;5016985;28;20060;-85
2023/08/26 03:39:00;;;;;;;1.43;1.33;;;;;;;12.78;100.00;100898.34;5017151;28;20037;-85
2023/08/26 03:41:25;;;;;;;1.30;1.20;;;;;;;12.76;100.00;100894.91;5011940;28;20025;-85
2023/08/26 03:43:51;;;;;;;0.93;0.93;;;;;;;12.77;100.00;100900.97;5017024;28;20025;-85
2023/08/26 03:46:16;;;;;;;1.20;1.17;;;;;;;12.76;100.00;100897.50;5016585;28;20455;-85
2023/08/26 03:48:41;;;;;;;1.20;1.10;;;;;;;12.74;100.00;100894.06;5015557;28;20072;-86
2023/08/26 03:51:07;;;;;;;2.00;1.10;;;;;;;12.72;100.00;100901.06;5018635;28;20030;-85
2023/08/26 03:53:32;;;;;;;1.50;1.40;;;;;;;12.67;100.00;100892.53;5017267;28;20029;-86
2023/08/26 03:55:58;;;;;;;1.67;1.53;;;;;;;12.70;100.00;100904.59;5016047;28;20528;-85
2023/08/26 03:58:27;;;;;;;1.55;1.30;;;;;;;12.66;100.00;100896.00;5016792;28;20133;-85
2023/08/26 04:01:02;;;;;;;2.83;1.30;;;;;;;12.62;100.00;100896.97;5016397;28;20022;-85
2023/08/26 04:03:27;;;;;;;1.52;1.42;;;;;;;12.64;100.00;100905.59;5017975;28;20022;-85
2023/08/26 04:06:11;;;;;;;1.37;1.00;;;;;;;12.66;100.00;100906.44;5016898;28;20352;-85
2023/08/26 04:08:36;;;;;;;1.35;1.25;;;;;;;12.62;100.00;100895.22;5015613;28;20036;-84
2023/08/26 04:11:02;;;;;;;0.90;0.90;;;;;;;12.65;100.00;100907.31;5016189;28;20029;-85
2023/08/26 04:13:28;;;;;;;1.30;1.27;;;;;;;12.61;100.00;100910.91;5016815;28;20021;-85
2023/08/26 04:16:02;;;;;;;1.10;1.10;;;;;;;12.60;100.00;100907.41;5015949;28;20121;-85
2023/08/26 04:18:28;;;;;;;2.30;1.70;;;;;;;12.54;100.00;100912.78;5017339;28;20033;-85
2023/08/26 04:20:53;;;;;;;1.37;1.27;;;;;;;12.50;100.00;100917.19;5016296;28;20045;-85
2023/08/26 04:23:54;;;;;;;1.40;1.30;;;;;;;12.32;100.00;100902.84;5014979;28;20088;-85
2023/08/26 04:26:31;;;;;;;1.80;1.70;;;;;;;12.30;100.00;100914.16;5015952;28;20044;-85
2023/08/26 04:29:02;;;;;;;1.92;1.40;;;;;;;12.38;100.00;100927.88;5015831;28;20022;-84
2023/08/26 04:31:28;;;;;;;1.25;1.20;;;;;;;12.38;100.00;100930.50;5016140;28;20045;-86
2023/08/26 04:33:56;;;;;;;1.20;1.20;;;;;;;12.39;100.00;100931.31;5015729;28;20029;-85
2023/08/26 04:36:39;;;;;;;1.15;1.15;;;;;;;12.36;100.00;100927.91;5014987;28;20486;-85
2023/08/26 04:39:29;;;;;;;1.67;1.45;;;;;;;12.30;100.00;100920.22;5015571;28;20470;-85
2023/08/26 04:41:54;;;;;;;1.17;1.10;;;;;;;12.32;100.00;100928.00;5016115;28;20017;-85
2023/08/26 04:44:20;;;;;;;1.47;1.37;;;;;;;12.25;100.00;100929.03;5013314;28;20029;-85
2023/08/26 04:46:45;;;;;;;1.70;1.30;;;;;;;12.34;100.00;100947.88;5016089;28;20654;-85
2023/08/26 04:49:11;;;;;;;1.17;1.10;;;;;;;12.32;100.00;100943.59;5015361;28;20030;-85
2023/08/26 04:51:38;;;;;;;1.40;1.30;;;;;;;12.32;100.00;100944.47;5015582;28;20032;-85
2023/08/26 04:54:04;;;;;;;1.45;1.40;;;;;;;12.31;100.00;100947.09;5015274;28;20331;-85
2023/08/26 04:56:32;;;;;;;1.53;1.40;;;;;;;12.29;100.00;100938.47;5015866;28;20022;-86
2023/08/26 04:58:57;;;;;;;1.52;1.42;;;;;;;12.25;100.00;100952.44;5015752;28;20033;-85
2023/08/26 05:01:23;;;;;;;2.40;2.00;;;;;;;12.18;100.00;100949.09;5015346;28;20022;-85
2023/08/26 05:03:48;;;;;;;1.53;1.43;;;;;;;12.18;100.00;100956.91;5015838;28;20068;-85
2023/08/26 05:06:13;;;;;;;1.77;1.67;;;;;;;12.22;100.00;100965.50;5014853;28;20450;-85
2023/08/26 05:08:39;;;;;;;1.50;1.40;;;;;;;12.14;100.00;100953.53;5015714;28;20084;-85
2023/08/26 05:11:05;;;;;;;1.60;1.50;;;;;;;12.21;100.00;100967.25;5014434;28;20104;-85
2023/08/26 05:13:31;;;;;;;;;;;;;;;12.21;100.00;100962.06;5015284;28;20041;-85
2023/08/26 05:15:56;;;;;;;2.67;1.80;;;;;;;12.19;100.00;100964.69;5015378;28;19913;-85
2023/08/26 05:18:22;;;;;;;1.93;1.70;;;;;;;12.20;100.00;100960.34;5014133;28;20026;-85
2023/08/26 05:20:47;;;;;;;1.97;1.80;;;;;;;12.09;100.00;100947.53;5014740;28;20065;-85
2023/08/26 05:23:14;;;;;;;2.03;1.77;;;;;;;12.18;100.00;100959.50;5014779;28;20032;-85
2023/08/26 05:25:40;;;;;;;1.65;1.50;;;;;;;12.21;100.00;100959.47;5014951;28;20029;-84
2023/08/26 05:28:06;;;;;;;2.33;1.80;;;;;;;12.22;100.00;100962.91;5014653;28;20463;-85
2023/08/26 05:30:33;;;;;;;2.20;2.00;;;;;;;12.20;100.00;100961.19;5014883;28;20053;-85
2023/08/26 05:32:58;;;;;;;;;;;;;;;12.23;100.00;100956.81;5031674;28;20025;-85
2023/08/26 05:35:23;;;;;;;3.03;2.20;;;;;;;12.22;100.00;100960.31;5034338;28;19928;-86
2023/08/26 05:37:49;;;;;;;2.43;1.90;;;;;;;12.24;100.00;100961.97;5028440;23;20045;-85
2023/08/26 05:40:15;;;;;;;2.63;1.90;;;;;;;12.30;100.00;100966.19;5017674;28;20372;-84
2023/08/26 05:42:41;;;;;;;2.33;2.00;;;;;;;12.29;100.00;100956.69;5015044;28;20028;-84
2023/08/26 05:45:07;;;;;;;3.63;2.30;;;;;;;12.33;100.00;100960.94;5015162;28;20022;-84
2023/08/26 05:47:32;;;;;;;2.60;2.20;;;;;;;12.33;100.00;100956.56;5014447;28;20343;-82
2023/08/26 05:49:58;;;;;;;2.13;1.87;;;;;;;12.41;100.00;100950.38;5014332;28;20289;-83
2023/08/26 05:52:24;;;;;;;2.17;1.97;;;;;;;12.38;100.00;100937.41;5014718;28;20030;-83
2023/08/26 05:54:50;;;;;;;2.33;1.95;;;;;;;12.50;100.00;100950.16;5013419;28;20022;-85
2023/08/26 05:57:15;;;;;;;1.83;1.70;;;;;;;12.50;100.00;100948.41;5014816;28;20463;-85
2023/08/26 05:59:40;;;;;;;3.60;1.83;;;;;;;12.54;100.00;100938.81;5015933;28;20401;-85
2023/08/26 06:02:06;;;;;;;2.47;2.00;;;;;;;12.60;100.00;100956.06;5013432;28;20407;-85
2023/08/26 06:04:32;;;;;;;4.63;2.43;;;;;;;12.66;100.00;100948.97;5014738;28;20049;-88
2023/08/26 06:06:57;;;;;;;2.30;1.90;;;;;;;12.72;100.00;100947.09;5014222;28;20034;-87
2023/08/26 06:09:23;;;;;;;4.33;2.30;;;;;;;12.73;100.00;100948.81;5013765;28;20065;-88
2023/08/26 06:11:51;;;;;;;5.17;2.73;;;;;;;12.72;100.00;100941.88;5014315;28;20030;-83
2023/08/26 06:14:39;;;;;;;4.90;2.50;;;;;;;12.69;100.00;100929.81;5013818;28;20021;-87
2023/08/26 06:17:16;;;;;;;5.18;2.75;;;;;;;12.82;100.00;100949.47;5003765;28;20088;-87
2023/08/26 06:19:42;;;;;;;6.15;2.90;;;;;;;12.88;100.00;100942.38;5014514;28;20022;-82
2023/08/26 06:22:07;;;;;;;5.20;2.53;;;;;;;12.97;100.00;100942.16;5012601;28;20030;-82
2023/08/26 06:24:32;;;;;;;4.37;2.47;;;;;;;12.93;100.00;100930.13;5013786;28;20050;-82
2023/08/26 06:26:58;;;;;;;4.73;2.70;;;;;;;13.06;100.00;100935.88;5015160;28;20037;-87
2023/08/26 06:29:35;;;;;;;7.37;3.00;;;;;;;13.01;100.00;100928.19;5013588;28;20030;-90
2023/08/26 06:32:00;;;;;;;5.15;2.30;;;;;;;13.08;100.00;100942.75;5014925;28;20084;-89
2023/08/26 06:34:26;;;;;;;4.07;2.40;;;;;;;13.21;100.00;100948.56;5013872;28;20022;-90
2023/08/26 06:37:00;;;;;;;5.30;2.30;;;;;;;13.24;100.00;100945.00;5012337;28;20045;-85
2023/08/26 06:39:26;;;;;;;5.68;2.60;;;;;;;13.23;100.00;100936.31;5016977;28;20121;-79
2023/08/26 06:41:57;;;;;;;4.63;2.37;;;;;;;13.32;100.00;100944.81;5013255;28;20537;-82
2023/08/26 06:44:34;;;;;;;4.88;2.60;;;;;;;13.33;100.00;100936.94;5012316;28;20029;-87
2023/08/26 06:47:11;;;;;;;4.57;2.25;;;;;;;13.42;100.00;100931.53;5018121;28;20036;-80
2023/08/26 06:49:45;;;;;;;5.20;2.60;;;;;;;13.49;100.00;100931.38;5033253;28;20053;-82
2023/08/26 06:52:11;;;;;;;5.85;2.83;;;;;;;13.63;100.00;100937.06;5022658;28;20459;-85
2023/08/26 06:54:36;;;;;;;5.63;2.60;;;;;;;13.66;100.00;100933.56;5013475;28;20030;-87
2023/08/26 06:57:17;;;;;;;5.07;2.50;;;;;;;13.66;100.00;100925.72;5012530;28;20026;-85
2023/08/26 06:59:42;;;;;;;6.20;2.78;;;;;;;13.80;100.00;100939.22;5013331;28;20054;-85
2023/08/26 07:02:07;;;;;;;6.07;2.57;;;;;;;13.90;100.00;100945.06;5012966;28;20046;-85
2023/08/26 07:04:33;;;;;;;3.60;2.47;;;;;;;13.92;100.00;100934.56;5023770;28;20052;-86
2023/08/26 07:07:01;;;;;;;5.47;2.55;;;;;;;14.04;100.00;100944.66;5032393;28;20116;-86
2023/08/26 07:09:26;;;;;;;4.50;2.55;;;;;;;14.10;100.00;100944.50;5032422;28;20495;-88
2023/08/26 07:11:52;;;;;;;4.73;2.40;;;;;;;14.37;100.00;100949.81;5032122;28;20041;-86
2023/08/26 07:14:17;;;;;;;3.43;2.10;;;;;;;16.12;100.00;100948.53;5032470;28;20072;-85
2023/08/26 07:16:42;;;;;;;2.83;1.93;;;;;;;18.60;96.78;100954.84;5033092;28;20017;-86
2023/08/26 07:19:08;;;;;;;4.17;2.13;;;;;;;20.51;89.19;100958.41;5031757;28;20021;-86
2023/08/26 07:21:34;;;;;;;5.63;2.33;;;;;;;21.65;80.77;100964.22;5032947;28;20105;-86
2023/08/26 07:23:59;;;;;;;2.67;2.00;;;;;;;22.10;80.48;100960.66;5032487;28;20648;-85
2023/08/26 07:26:24;;;;;;;2.33;1.80;;;;;;;21.90;69.34;100966.22;5031064;28;20515;-86
2023/08/26 07:31:33;;;;;;;2.22;1.90;;;;;;;19.98;81.95;100969.13;5033073;28;20098;-86
2023/08/26 07:33:59;;;;;;;3.47;2.00;;;;;;;19.21;81.11;100967.75;5030204;28;20033;-87
2023/08/26 07:36:42;;;;;;;4.30;2.00;;;;;;;18.42;84.21;100972.31;5031663;28;20040;-86
2023/08/26 07:39:11;;;;;;;4.78;2.33;;;;;;;17.84;85.75;100957.41;5030702;28;20029;-87
2023/08/26 07:41:36;;;;;;;4.05;2.40;;;;;;;17.46;85.04;100973.88;5021507;28;20111;-84
2023/08/26 07:44:03;;;;;;;4.70;2.30;;;;;;;17.25;88.70;100965.13;5027156;28;20469;-85
2023/08/26 07:46:37;;;;;;;;;;;;;;;17.01;87.87;100969.63;5027502;28;20048;-85
2023/08/26 07:49:14;;;;;;;4.95;2.15;;;;;;;16.86;89.58;100966.66;5021074;28;20003;-85
2023/08/26 07:51:39;;;;;;;3.25;2.25;;;;;;;16.80;88.78;100964.28;5032278;28;20029;-85
2023/08/26 07:54:14;;;;;;;3.90;2.47;;;;;;;16.78;90.54;100972.19;5016793;28;20102;-85
2023/08/26 07:56:48;;;;;;;2.50;2.00;;;;;;;16.76;91.33;100963.56;5012528;28;20053;-84
2023/08/26 07:59:16;;;;;;;5.18;2.10;;;;;;;16.76;91.01;100957.44;5012940;28;20061;-84
2023/08/26 08:01:56;;;;;;;6.55;2.50;;;;;;;16.76;88.80;100960.94;5012385;28;20449;-84
2023/08/26 08:04:35;;;;;;;3.28;2.08;;;;;;;16.89;91.50;100974.41;5012555;28;20053;-86
2023/08/26 08:07:01;;;;;;;2.95;2.03;;;;;;;16.95;93.02;100961.06;4992698;28;20046;-84
2023/08/26 08:09:35;;;;;;;3.83;2.03;;;;;;;17.07;91.72;100967.59;4992753;28;20054;-84
2023/08/26 08:12:04;;;;;;;3.15;2.10;;;;;;;17.12;91.72;100954.31;4993828;28;20018;-84
2023/08/26 08:14:32;;;;;;;2.85;2.10;;;;;;;17.17;88.64;100962.81;5029255;28;20033;-83
2023/08/26 08:16:57;;;;;;;3.00;2.00;;;;;;;17.25;90.06;100966.00;5032390;28;20032;-84
2023/08/26 08:19:24;;;;;;;3.73;2.00;;;;;;;17.35;90.38;100965.59;5036461;28;20029;-83
2023/08/26 08:21:49;;;;;;;2.17;1.73;;;;;;;17.42;90.95;100962.66;5028759;28;20109;-83
2023/08/26 08:24:15;;;;;;;1.90;1.70;;;;;;;17.53;90.55;100951.69;5016622;28;20072;-84
2023/08/26 08:26:43;;;;;;;3.57;1.87;;;;;;;17.67;90.56;100972.13;5015060;28;20362;-83
2023/08/26 08:29:10;;;;;;;2.88;1.67;;;;;;;17.69;87.24;100948.44;5014679;28;20471;-83
2023/08/26 08:31:41;;;;;;;5.18;1.92;;;;;;;17.81;86.15;100957.53;5015705;28;20018;-83
2023/08/26 08:34:07;;;;;;;2.13;1.50;;;;;;;17.85;89.26;100952.06;5015790;28;20032;-84
2023/08/26 08:36:33;;;;;;;2.27;1.67;;;;;;;18.07;91.12;100966.91;5015627;28;20573;-83
2023/08/26 08:39:01;;;;;;;2.28;1.60;;;;;;;18.20;89.98;100960.19;5015792;28;20025;-82
2023/08/26 08:41:29;;;;;;;3.30;1.38;;;;;;;18.34;87.59;100964.81;5015460;28;20033;-83
2023/08/26 08:44:00;;;;;;;1.55;1.38;;;;;;;18.47;88.25;100967.72;5015106;28;20432;-85
2023/08/26 08:46:26;;;;;;;1.45;1.35;;;;;;;18.60;85.23;100967.16;5016188;28;20033;-85
2023/08/26 08:48:52;;;;;;;1.63;1.42;;;;;;;18.66;85.87;100951.94;5015649;28;20172;-84
2023/08/26 08:51:19;;;;;;;1.30;1.20;;;;;;;18.84;87.84;100957.22;5014571;28;20453;-83
2023/08/26 08:53:47;;;;;;;1.30;1.20;;;;;;;18.92;85.89;100962.13;5015688;28;20066;-84
2023/08/26 08:56:16;;;;;;;3.53;1.50;;;;;;;18.84;84.30;100962.50;5014687;28;20091;-83
2023/08/26 08:58:46;;;;;;;3.88;1.35;;;;;;;18.78;84.16;100975.94;5020936;28;20025;-84
2023/08/26 09:01:13;;;;;;;1.50;1.40;;;;;;;18.88;82.24;100979.84;5035724;28;20029;-83
2023/08/26 09:03:40;;;;;;;2.00;1.45;;;;;;;18.87;81.87;100972.88;5034993;28;20029;-83
2023/08/26 09:06:05;;;;;;;1.70;1.60;;;;;;;18.74;83.26;100982.25;5035063;28;20025;-83
2023/08/26 09:08:31;;;;;;;2.80;1.60;;;;;;;18.82;85.62;100980.97;5034819;28;20185;-83
2023/08/26 09:10:57;;;;;;;3.97;1.58;;;;;;;19.00;84.60;100981.03;5034427;28;20088;-83
2023/08/26 09:13:22;;;;;;;1.47;1.37;;;;;;;19.07;83.85;100986.84;5034898;28;20026;-83
2023/08/26 09:15:47;;;;;;;1.33;1.20;;;;;;;19.17;81.88;100971.47;5034390;28;20096;-82
2023/08/26 09:18:13;;;;;;;1.63;1.50;;;;;;;19.19;85.30;100967.84;5020961;28;20026;-83
2023/08/26 09:20:42;;;;;;;1.67;1.48;;;;;;;19.46;81.76;100988.44;5034427;28;20025;-83
2023/08/26 09:23:10;;;;;;;2.00;1.40;;;;;;;19.69;79.70;100996.94;5034809;28;20381;-86
2023/08/26 09:25:35;;;;;;;2.67;1.67;;;;;;;19.79;79.67;100997.31;5032116;28;20025;-88
2023/08/26 09:28:01;;;;;;;2.03;1.50;;;;;;;19.80;79.58;101004.28;5035036;28;20022;-87
2023/08/26 09:30:27;;;;;;;1.65;1.30;;;;;;;19.75;79.80;100994.00;5033756;28;20080;-87
2023/08/26 09:32:53;;;;;;;2.20;1.40;;;;;;;19.80;79.95;101004.28;5033517;28;20528;-79
2023/08/26 09:35:19;;;;;;;;;;;;;;;19.84;80.59;101003.22;5035065;28;20052;-87
2023/08/26 09:37:55;;;;;;;4.22;1.50;;;;;;;19.80;75.70;100997.25;5033612;28;19917;-86
2023/08/26 09:40:21;;;;;;;1.50;1.40;;;;;;;19.73;76.71;100998.47;5033406;28;20029;-86
2023/08/26 09:42:46;;;;;;;2.33;1.30;;;;;;;19.64;78.58;100999.81;5034018;28;20631;-87
2023/08/26 09:45:17;;;;;;;2.83;1.43;;;;;;;19.59;78.58;100997.41;5032193;28;20037;-86
2023/08/26 09:47:44;;;;;;;2.50;1.30;;;;;;;19.62;80.74;100996.41;5033177;28;20042;-87
2023/08/26 09:50:10;;;;;;;2.70;1.30;;;;;;;19.71;79.68;100993.31;5034135;28;20038;-85
2023/08/26 09:52:48;;;;;;;1.93;1.33;;;;;;;19.86;77.55;101006.66;5033719;28;20033;-85
2023/08/26 09:55:14;;;;;;;1.80;1.60;;;;;;;19.99;77.89;101001.59;5034970;28;20052;-85
2023/08/26 09:57:43;;;;;;;1.52;1.30;;;;;;;20.15;73.26;100999.81;5034048;28;20437;-85
2023/08/26 10:00:10;;;;;;;3.13;1.33;;;;;;;20.20;76.65;100991.69;5033445;28;20036;-85
2023/08/26 10:02:38;;;;;;;1.52;1.20;;;;;;;20.36;76.74;101002.28;5034091;28;20018;-85
2023/08/26 10:05:09;;;;;;;1.15;1.05;;;;;;;20.54;77.97;101005.69;5033647;28;20108;-85
2023/08/26 10:07:36;;;;;;;1.10;1.00;;;;;;;20.71;77.38;100998.63;5033299;28;20536;-85
2023/08/26 10:10:10;;;;;;;1.05;0.95;;;;;;;20.94;78.16;101000.84;5034279;28;20052;-85
2023/08/26 10:12:45;;;;;;;0.80;0.80;;;;;;;21.18;77.32;101004.81;5033586;28;20033;-85
2023/08/26 10:15:13;;;;;;;0.80;0.80;;;;;;;21.34;75.60;101004.75;5013144;28;20034;-86
2023/08/26 10:17:43;;;;;;;1.10;1.00;;;;;;;21.43;72.99;101007.72;5013816;28;20030;-86
2023/08/26 10:20:09;;;;;;;0.77;0.77;;;;;;;21.30;73.15;101014.66;5013791;28;20034;-86
2023/08/26 10:22:36;;;;;;;1.77;1.23;;;;;;;21.13;66.41;101008.56;5013015;28;20057;-85
2023/08/26 10:25:03;;;;;;;2.38;1.27;;;;;;;21.05;70.90;101010.81;5014449;28;20038;-86
2023/08/26 10:27:29;;;;;;;2.08;1.23;;;;;;;20.78;68.97;101014.06;5013406;28;20028;-85
2023/08/26 10:29:55;;;;;;;1.50;1.20;;;;;;;20.63;69.70;101017.50;5007047;28;20482;-85
2023/08/26 10:32:22;;;;;;;2.25;1.20;;;;;;;20.45;70.75;101014.06;5013466;28;20026;-85
2023/08/26 10:35:00;;;;;;;1.63;1.13;;;;;;;20.29;74.46;101008.78;5013230;28;20033;-85
2023/08/26 10:37:27;;;;;;;1.10;1.08;;;;;;;20.20;72.33;101005.72;5013061;28;20046;-84
2023/08/26 10:39:52;;;;;;;1.52;1.00;;;;;;;20.19;72.43;101005.81;5013816;28;20034;-85
2023/08/26 10:42:22;;;;;;;2.30;0.80;;;;;;;20.14;73.38;101010.47;5012841;28;20501;-82
2023/08/26 10:44:53;;;;;;;1.30;0.88;;;;;;;20.25;73.63;101002.00;5013411;28;20026;-83
2023/08/26 10:47:31;;;;;;;0.93;0.80;;;;;;;20.59;72.25;101013.34;5013282;28;20542;-83
2023/08/26 10:50:15;;;;;;;1.73;1.10;;;;;;;20.92;74.24;101000.09;5029203;28;20071;-82
2023/08/26 10:52:44;;;;;;;1.33;1.00;;;;;;;21.32;71.74;100993.47;5033395;28;20053;-86
2023/08/26 10:55:19;;;;;;;2.35;1.00;;;;;;;21.65;71.13;100998.56;5032502;28;20109;-86
2023/08/26 10:58:05;;;;;;;0.85;0.85;;;;;;;21.75;71.91;100997.06;5032332;28;20037;-86
2023/08/26 11:00:31;;;;;;;1.23;0.80;;;;;;;21.77;72.56;100998.78;5033095;28;20029;-86
2023/08/26 11:02:57;;;;;;;0.77;0.77;;;;;;;21.54;64.01;100993.03;5032233;28;20366;-86
2023/08/26 11:05:23;;;;;;;0.70;0.70;;;;;;;21.31;69.80;100989.13;5032537;28;20025;-86
2023/08/26 11:07:49;;;;;;;;;;;;;;;21.14;68.79;100983.88;5033300;28;20034;-86
2023/08/26 11:10:34;;;;;;;0.98;0.80;;;;;;;21.07;71.62;100990.44;5017628;28;19924;-85
2023/08/26 11:13:09;;;;;;;0.57;0.50;;;;;;;21.24;73.70;100975.44;5013121;28;20022;-86
2023/08/26 11:15:39;;;;;;;0.95;0.77;;;;;;;21.45;72.21;100975.94;5013241;28;20292;-84
2023/08/26 11:18:06;;;;;;;0.60;0.60;;;;;;;21.57;73.41;100982.31;5012011;28;20069;-85
2023/08/26 11:20:32;;;;;;;0.80;0.80;;;;;;;21.66;68.95;100971.22;5014503;28;20065;-87
2023/08/26 11:22:57;;;;;;;0.98;0.98;;;;;;;21.94;67.16;100974.84;5013837;28;20060;-87
2023/08/26 11:25:23;;;;;;;2.37;1.00;;;;;;;22.05;67.78;100966.22;5012200;28;20025;-87
2023/08/26 11:27:49;;;;;;;4.00;1.30;;;;;;;22.05;66.24;100979.44;5013056;28;20025;-86
2023/08/26 11:30:14;;;;;;;1.10;1.00;;;;;;;22.10;68.42;100980.03;5012796;28;20467;-87